Steveston Lifeboat — VOQQ — position and weather

sailwx.info

Track history (hours):
 
Tides and Currents Weather Stations Pressure Air Temp Water Temp Dewpoint Dewpoint Depression Visibility Wind Speed Wind Dir Waves Ship Positions

Steveston Lifeboat

Last reported at 2014-Sep-17 00:17 UTC. Time now 2014-Oct-02 16:29 UTC.
Position N 49°07' W 123°11'.
Warning: this ship's position is 15 days out of date.

Length 15 m.

Type: SAR. MMSI: 316012135.

Date/timePositionNaut miles runAvg speedWind from/ knotsBaromVisibWave heightAir tempDewpointWater temp
2014-Sep-17 00:17N 49°07' W 123°11'3 4.1
2014-Sep-16 23:33N 49°07' W 123°15'2 1.8
2014-Sep-16 22:33N 49°06' W 123°18'2 2.0
2014-Sep-16 21:34N 49°08' W 123°20'3 2.6
2014-Sep-16 20:33N 49°07' W 123°17'4 0.1
2014-Sep-15 03:19N 49°07' W 123°11'3 4.3
2014-Sep-15 02:33N 49°07' W 123°06'0 0.4
2014-Sep-15 01:33N 49°07' W 123°05'5 5.4
2014-Sep-15 00:34N 49°09' W 122°58'5 5.5
2014-Sep-14 23:33N 49°07' W 123°05'5 5.3
2014-Sep-14 22:34N 49°08' W 123°13'3 2.9
2014-Sep-14 21:33N 49°07' W 123°09'2 2.4
2014-Sep-14 20:33N 49°08' W 123°13'4 3.8
2014-Sep-14 19:34N 49°07' W 123°07'3 3.5
2014-Sep-14 18:33N 49°08' W 123°03'1 1.4
2014-Sep-14 17:34N 49°08' W 123°04'1 0.7
2014-Sep-14 16:33N 49°07' W 123°05'7 7.4
2014-Sep-14 15:33N 49°07' W 123°16'3 3.3
2014-Sep-14 14:33N 49°07' W 123°11'0 0.4
2014-Sep-14 13:33N 49°07' W 123°11'0 0.3
2014-Sep-14 12:33N 49°07' W 123°11'0 0.0
2014-Sep-14 11:33N 49°07' W 123°11'0 0.0
2014-Sep-14 10:33N 49°07' W 123°11'0 0.0
2014-Sep-14 09:33N 49°07' W 123°11'0 0.0
2014-Sep-14 08:33N 49°07' W 123°11'1 0.5
2014-Sep-14 07:33N 49°07' W 123°12'5 4.5
2014-Sep-14 06:33N 49°07' W 123°05'0 0.3
2014-Sep-14 05:34N 49°07' W 123°05'2 1.5
2014-Sep-14 04:33N 49°07' W 123°07'3 2.9
2014-Sep-14 03:33N 49°07' W 123°12'0 0.4
2014-Sep-14 02:33N 49°07' W 123°11'4 4.0
2014-Sep-14 01:34N 49°07' W 123°05'4 1.0
2014-Sep-13 21:33N 49°07' W 123°11'0 0.0
2014-Sep-13 20:33N 49°07' W 123°11'0 0.0
2014-Sep-13 19:33N 49°07' W 123°11'0 0.0
2014-Sep-13 18:33N 49°07' W 123°11'0 0.0
2014-Sep-13 17:33N 49°07' W 123°11'0 0.0
2014-Sep-13 16:33N 49°07' W 123°11'0 0.0
2014-Sep-13 15:33N 49°07' W 123°11'0 0.0
2014-Sep-13 14:33N 49°07' W 123°11'0 0.0
2014-Sep-13 13:33N 49°07' W 123°11'0 0.0
2014-Sep-13 12:31N 49°07' W 123°11'0 0.0
2014-Sep-13 11:33N 49°07' W 123°11'0 0.0
2014-Sep-13 10:33N 49°07' W 123°11'0 0.0
2014-Sep-13 09:33N 49°07' W 123°11'0 0.0
2014-Sep-13 08:29N 49°07' W 123°11'0 0.0
2014-Sep-13 07:33N 49°07' W 123°11'0 0.0
2014-Sep-13 06:33N 49°07' W 123°11'0 0.0
2014-Sep-13 05:33N 49°07' W 123°11'0 0.0
2014-Sep-13 04:33N 49°07' W 123°11'0 0.0
2014-Sep-13 03:33N 49°07' W 123°11'0 0.0
2014-Sep-13 02:34N 49°07' W 123°11'0 0.0
2014-Sep-13 01:33N 49°07' W 123°11'0 0.0
2014-Sep-13 00:33N 49°07' W 123°11'0 0.0
2014-Sep-12 23:33N 49°07' W 123°11'0 0.0
2014-Sep-12 22:33N 49°07' W 123°11'0 0.0
2014-Sep-12 21:33N 49°07' W 123°11'0 0.0
2014-Sep-12 20:33N 49°07' W 123°11'0 0.0
2014-Sep-12 19:33N 49°07' W 123°11'0 0.0
2014-Sep-12 18:26N 49°07' W 123°11'0 0.0
2014-Sep-12 17:32N 49°07' W 123°11'0 0.0
2014-Sep-12 16:33N 49°07' W 123°11'0 0.0
2014-Sep-12 15:33N 49°07' W 123°11'1 0.8
2014-Sep-12 14:33N 49°07' W 123°12'4 3.7
2014-Sep-12 13:33N 49°07' W 123°07'5 4.6
2014-Sep-12 12:33N 49°08' W 123°13'2 1.6
2014-Sep-12 11:34N 49°07' W 123°11'0 0.0
2014-Sep-12 10:33N 49°07' W 123°11'0 0.0
2014-Sep-12 09:33N 49°07' W 123°11'0 0.0
2014-Sep-12 08:33N 49°07' W 123°11'0 0.0
2014-Sep-12 07:33N 49°07' W 123°11'0 0.0
2014-Sep-12 06:33N 49°07' W 123°11'3 2.6
2014-Sep-12 05:33N 49°07' W 123°07'1 0.5
2014-Sep-12 04:33N 49°07' W 123°06'2 2.1
2014-Sep-12 03:33N 49°08' W 123°04'5 4.7
2014-Sep-12 02:33N 49°07' W 123°11'1 1.2
2014-Sep-12 01:33N 49°07' W 123°10'5 5.3
2014-Sep-12 00:33N 49°06' W 123°18'4 3.6
2014-Sep-11 23:33N 49°07' W 123°12'1 0.7
2014-Sep-11 22:33N 49°08' W 123°13'3 3.0
2014-Sep-11 21:33N 49°06' W 123°18'4 4.4
2014-Sep-11 20:33N 49°07' W 123°11'3 2.8
2014-Sep-11 19:33N 49°06' W 123°07'5 4.9
2014-Sep-11 18:33N 49°09' W 123°01'5 4.7
2014-Sep-11 17:34N 49°07' W 123°07'3 3.0
2014-Sep-11 16:33N 49°07' W 123°11'1 0.8
2014-Sep-11 15:33N 49°07' W 123°10'1 0.0
2014-Sep-09 15:22N 49°07' W 123°11'1 1.8
2014-Sep-09 14:33N 49°07' W 123°09'1 0.6
2014-Sep-09 13:33N 49°06' W 123°08'2 2.2
2014-Sep-09 12:33N 49°07' W 123°11'1 1.2
2014-Sep-09 11:33N 49°08' W 123°13'2 1.9
2014-Sep-09 10:34N 49°07' W 123°11'1 0.6
2014-Sep-09 09:33N 49°07' W 123°11'0 0.0
2014-Sep-09 08:33N 49°07' W 123°11'0 0.0
2014-Sep-09 07:33N 49°07' W 123°11'0 0.0
2014-Sep-09 06:32N 49°07' W 123°11'3 3.5
2014-Sep-09 05:33N 49°07' W 123°16'4 4.2
2014-Sep-09 04:33N 49°07' W 123°10'2 2.5
2014-Sep-09 03:34N 49°07' W 123°06'6 6.2
2014-Sep-09 02:33N 49°07' W 123°15'3 2.9
2014-Sep-09 01:33N 49°07' W 123°11'0 0.0
2014-Sep-09 00:33N 49°07' W 123°11'2 1.9
2014-Sep-08 23:34N 49°08' W 123°14'5 4.9
2014-Sep-08 22:33N 49°07' W 123°07'3 2.9
2014-Sep-08 21:33N 49°07' W 123°11'2 2.3
2014-Sep-08 20:33N 49°08' W 123°14'0 0.2
2014-Sep-08 19:33N 49°08' W 123°14'3 2.7
2014-Sep-08 18:33N 49°06' W 123°17'9 9.0
2014-Sep-08 17:33N 49°08' W 123°04'3 2.8
2014-Sep-08 16:33N 49°07' W 123°08'3 2.8
2014-Sep-08 15:33N 49°07' W 123°12'  
Track history (hours):
 
Tides and Currents Weather Stations Pressure Air Temp Water Temp Dewpoint Dewpoint Depression Visibility Wind Speed Wind Dir Waves Ship Positions

Steveston Lifeboat

Last reported at 2014-Sep-17 00:17 UTC. Time now 2014-Oct-02 16:29 UTC.
Position N 49°07' W 123°11'.
Warning: this ship's position is 15 days out of date.

Length 15 m.

Type: SAR. MMSI: 316012135.

Date/timePositionNaut miles runAvg speedWind from/ knotsBaromVisibWave heightAir tempDewpointWater temp
2014-Sep-17 00:17N 49°07' W 123°11'3 4.1
2014-Sep-16 23:33N 49°07' W 123°15'2 1.8
2014-Sep-16 22:33N 49°06' W 123°18'2 2.0
2014-Sep-16 21:34N 49°08' W 123°20'3 2.6
2014-Sep-16 20:33N 49°07' W 123°17'4 0.1
2014-Sep-15 03:19N 49°07' W 123°11'3 4.3
2014-Sep-15 02:33N 49°07' W 123°06'0 0.4
2014-Sep-15 01:33N 49°07' W 123°05'5 5.4
2014-Sep-15 00:34N 49°09' W 122°58'5 5.5
2014-Sep-14 23:33N 49°07' W 123°05'5 5.3
2014-Sep-14 22:34N 49°08' W 123°13'3 2.9
2014-Sep-14 21:33N 49°07' W 123°09'2 2.4
2014-Sep-14 20:33N 49°08' W 123°13'4 3.8
2014-Sep-14 19:34N 49°07' W 123°07'3 3.5
2014-Sep-14 18:33N 49°08' W 123°03'1 1.4
2014-Sep-14 17:34N 49°08' W 123°04'1 0.7
2014-Sep-14 16:33N 49°07' W 123°05'7 7.4
2014-Sep-14 15:33N 49°07' W 123°16'3 3.3
2014-Sep-14 14:33N 49°07' W 123°11'0 0.4
2014-Sep-14 13:33N 49°07' W 123°11'0 0.3
2014-Sep-14 12:33N 49°07' W 123°11'0 0.0
2014-Sep-14 11:33N 49°07' W 123°11'0 0.0
2014-Sep-14 10:33N 49°07' W 123°11'0 0.0
2014-Sep-14 09:33N 49°07' W 123°11'0 0.0
2014-Sep-14 08:33N 49°07' W 123°11'1 0.5
2014-Sep-14 07:33N 49°07' W 123°12'5 4.5
2014-Sep-14 06:33N 49°07' W 123°05'0 0.3
2014-Sep-14 05:34N 49°07' W 123°05'2 1.5
2014-Sep-14 04:33N 49°07' W 123°07'3 2.9
2014-Sep-14 03:33N 49°07' W 123°12'0 0.4
2014-Sep-14 02:33N 49°07' W 123°11'4 4.0
2014-Sep-14 01:34N 49°07' W 123°05'4 1.0
2014-Sep-13 21:33N 49°07' W 123°11'0 0.0
2014-Sep-13 20:33N 49°07' W 123°11'0 0.0
2014-Sep-13 19:33N 49°07' W 123°11'0 0.0
2014-Sep-13 18:33N 49°07' W 123°11'0 0.0
2014-Sep-13 17:33N 49°07' W 123°11'0 0.0
2014-Sep-13 16:33N 49°07' W 123°11'0 0.0
2014-Sep-13 15:33N 49°07' W 123°11'0 0.0
2014-Sep-13 14:33N 49°07' W 123°11'0 0.0
2014-Sep-13 13:33N 49°07' W 123°11'0 0.0
2014-Sep-13 12:31N 49°07' W 123°11'0 0.0
2014-Sep-13 11:33N 49°07' W 123°11'0 0.0
2014-Sep-13 10:33N 49°07' W 123°11'0 0.0
2014-Sep-13 09:33N 49°07' W 123°11'0 0.0
2014-Sep-13 08:29N 49°07' W 123°11'0 0.0
2014-Sep-13 07:33N 49°07' W 123°11'0 0.0
2014-Sep-13 06:33N 49°07' W 123°11'0 0.0
2014-Sep-13 05:33N 49°07' W 123°11'0 0.0
2014-Sep-13 04:33N 49°07' W 123°11'0 0.0
2014-Sep-13 03:33N 49°07' W 123°11'0 0.0
2014-Sep-13 02:34N 49°07' W 123°11'0 0.0
2014-Sep-13 01:33N 49°07' W 123°11'0 0.0
2014-Sep-13 00:33N 49°07' W 123°11'0 0.0
2014-Sep-12 23:33N 49°07' W 123°11'0 0.0
2014-Sep-12 22:33N 49°07' W 123°11'0 0.0
2014-Sep-12 21:33N 49°07' W 123°11'0 0.0
2014-Sep-12 20:33N 49°07' W 123°11'0 0.0
2014-Sep-12 19:33N 49°07' W 123°11'0 0.0
2014-Sep-12 18:26N 49°07' W 123°11'0 0.0
2014-Sep-12 17:32N 49°07' W 123°11'0 0.0
2014-Sep-12 16:33N 49°07' W 123°11'0 0.0
2014-Sep-12 15:33N 49°07' W 123°11'1 0.8
2014-Sep-12 14:33N 49°07' W 123°12'4 3.7
2014-Sep-12 13:33N 49°07' W 123°07'5 4.6
2014-Sep-12 12:33N 49°08' W 123°13'2 1.6
2014-Sep-12 11:34N 49°07' W 123°11'0 0.0
2014-Sep-12 10:33N 49°07' W 123°11'0 0.0
2014-Sep-12 09:33N 49°07' W 123°11'0 0.0
2014-Sep-12 08:33N 49°07' W 123°11'0 0.0
2014-Sep-12 07:33N 49°07' W 123°11'0 0.0
2014-Sep-12 06:33N 49°07' W 123°11'3 2.6
2014-Sep-12 05:33N 49°07' W 123°07'1 0.5
2014-Sep-12 04:33N 49°07' W 123°06'2 2.1
2014-Sep-12 03:33N 49°08' W 123°04'5 4.7
2014-Sep-12 02:33N 49°07' W 123°11'1 1.2
2014-Sep-12 01:33N 49°07' W 123°10'5 5.3
2014-Sep-12 00:33N 49°06' W 123°18'4 3.6
2014-Sep-11 23:33N 49°07' W 123°12'1 0.7
2014-Sep-11 22:33N 49°08' W 123°13'3 3.0
2014-Sep-11 21:33N 49°06' W 123°18'4 4.4
2014-Sep-11 20:33N 49°07' W 123°11'3 2.8
2014-Sep-11 19:33N 49°06' W 123°07'5 4.9
2014-Sep-11 18:33N 49°09' W 123°01'5 4.7
2014-Sep-11 17:34N 49°07' W 123°07'3 3.0
2014-Sep-11 16:33N 49°07' W 123°11'1 0.8
2014-Sep-11 15:33N 49°07' W 123°10'1 0.0
2014-Sep-09 15:22N 49°07' W 123°11'1 1.8
2014-Sep-09 14:33N 49°07' W 123°09'1 0.6
2014-Sep-09 13:33N 49°06' W 123°08'2 2.2
2014-Sep-09 12:33N 49°07' W 123°11'1 1.2
2014-Sep-09 11:33N 49°08' W 123°13'2 1.9
2014-Sep-09 10:34N 49°07' W 123°11'1 0.6
2014-Sep-09 09:33N 49°07' W 123°11'0 0.0
2014-Sep-09 08:33N 49°07' W 123°11'0 0.0
2014-Sep-09 07:33N 49°07' W 123°11'0 0.0
2014-Sep-09 06:32N 49°07' W 123°11'3 3.5
2014-Sep-09 05:33N 49°07' W 123°16'4 4.2
2014-Sep-09 04:33N 49°07' W 123°10'2 2.5
2014-Sep-09 03:34N 49°07' W 123°06'6 6.2
2014-Sep-09 02:33N 49°07' W 123°15'3 2.9
2014-Sep-09 01:33N 49°07' W 123°11'0 0.0
2014-Sep-09 00:33N 49°07' W 123°11'2 1.9
2014-Sep-08 23:34N 49°08' W 123°14'5 4.9
2014-Sep-08 22:33N 49°07' W 123°07'3 2.9
2014-Sep-08 21:33N 49°07' W 123°11'2 2.3
2014-Sep-08 20:33N 49°08' W 123°14'0 0.2
2014-Sep-08 19:33N 49°08' W 123°14'3 2.7
2014-Sep-08 18:33N 49°06' W 123°17'9 9.0
2014-Sep-08 17:33N 49°08' W 123°04'3 2.8
2014-Sep-08 16:33N 49°07' W 123°08'3 2.8
2014-Sep-08 15:33N 49°07' W 123°12'  

Dump ship's entire track history